Terminal Aerodrome Forecast
Issued by NWS Midland/Odessa, TX

Home | Current Version | Previous Version | Text Only | Print | Product List | Glossary On
Versions: 1 2 3 4 5 6 7 8 9 10 11 12 13 14 15 16 17 18 19 20 21 22 23 24 25 26 27 28 29 30 31
000
FTUS44 KMAF 282350 AAB
TAFMAF
TAF AMD
KMAF 282350Z 2900/2924 18025G35KT P6SM TSRA SCT100CB BKN250
      TEMPO 2900/2903 VRB40G52KT 1SM TSRAGS BLDU BKN080CB
     FM291600 27019G29KT P6SM SCT060 SCT250=

USA.gov is the U.S. government's official web portal to all federal, state and local government web resources and services.